createdAt,value
2023-01-12T00:02:15.012Z,96787.59
2023-01-12T00:04:54.709Z,96781.63
2023-01-12T00:07:23.699Z,96792.00
2023-01-12T00:09:52.058Z,96784.13
2023-01-12T00:12:20.453Z,96777.31
2023-01-12T00:14:48.815Z,96782.97
2023-01-12T00:17:19.562Z,96786.13
2023-01-12T00:19:47.973Z,96783.19
2023-01-12T00:22:18.346Z,96789.81
2023-01-12T00:24:49.857Z,96794.63
2023-01-12T00:27:20.173Z,96792.53
2023-01-12T00:29:48.790Z,96788.72
2023-01-12T00:32:19.167Z,96787.28
2023-01-12T00:34:47.787Z,96789.22
2023-01-12T00:37:18.023Z,96789.22
2023-01-12T00:40:01.015Z,96784.91
2023-01-12T00:42:48.137Z,96777.88
2023-01-12T00:45:22.488Z,96772.66
2023-01-12T00:47:51.079Z,96783.16
2023-01-12T00:50:19.879Z,96785.06
2023-01-12T00:52:49.632Z,96794.72
2023-01-12T00:55:17.881Z,96787.53
2023-01-12T00:57:46.196Z,96794.59
2023-01-12T01:00:15.524Z,96801.78
2023-01-12T01:02:43.904Z,96794.13
2023-01-12T01:05:12.230Z,96802.16
2023-01-12T01:07:40.616Z,96802.28
2023-01-12T01:10:12.205Z,96801.59
2023-01-12T01:12:40.522Z,96802.81
2023-01-12T01:15:10.108Z,96799.59
2023-01-12T01:17:38.450Z,96808.69
2023-01-12T01:20:07.485Z,96806.31
2023-01-12T01:22:36.009Z,96816.91
2023-01-12T01:25:04.590Z,96820.66
2023-01-12T01:27:34.356Z,96823.50
2023-01-12T01:30:02.709Z,96825.44
2023-01-12T01:32:31.001Z,96827.34
2023-01-12T01:34:59.320Z,96820.69
2023-01-12T01:37:27.691Z,96819.84
2023-01-12T01:39:56.263Z,96818.31
2023-01-12T01:42:29.144Z,96822.00
2023-01-12T01:45:01.027Z,96823.81
2023-01-12T01:47:35.583Z,96815.94
2023-01-12T01:50:13.431Z,96816.75
2023-01-12T01:52:46.340Z,96809.72
2023-01-12T01:55:19.690Z,96817.59
2023-01-12T01:57:53.320Z,96812.34
2023-01-12T02:00:25.948Z,96801.13
2023-01-12T02:02:56.124Z,96803.06
2023-01-12T02:05:27.641Z,96792.72
2023-01-12T02:08:01.173Z,96794.47
2023-01-12T02:10:29.606Z,96781.63
2023-01-12T02:13:15.600Z,96776.63
2023-01-12T02:16:22.825Z,96775.31
2023-01-12T02:19:01.809Z,96778.22
2023-01-12T02:22:13.956Z,96781.06
2023-01-12T02:25:10.711Z,96772.50
2023-01-12T02:27:54.296Z,96763.22
2023-01-12T02:31:04.533Z,96760.97
2023-01-12T02:33:45.827Z,96760.03
2023-01-12T02:36:24.276Z,96762.22
2023-01-12T02:38:58.575Z,96751.97
2023-01-12T02:41:54.614Z,96754.97
2023-01-12T02:44:29.170Z,96749.00
2023-01-12T02:47:01.680Z,96745.53
2023-01-12T02:49:34.158Z,96740.28
2023-01-12T02:52:07.734Z,96744.59
2023-01-12T02:54:38.271Z,96749.00
2023-01-12T02:57:10.026Z,96748.91
2023-01-12T02:59:41.289Z,96746.41
2023-01-12T03:02:13.239Z,96743.91
2023-01-12T03:04:42.311Z,96742.72
2023-01-12T03:07:37.505Z,96750.34
2023-01-12T03:10:20.671Z,96748.44
2023-01-12T03:12:52.192Z,96740.38
2023-01-12T03:15:20.623Z,96741.69
2023-01-12T03:17:57.013Z,96749.91
2023-01-12T03:20:29.623Z,96743.09
2023-01-12T03:23:01.086Z,96740.03
2023-01-12T03:25:32.495Z,96737.63
2023-01-12T03:28:02.698Z,96741.22
2023-01-12T03:30:36.771Z,96743.13
2023-01-12T03:33:07.658Z,96740.63
2023-01-12T03:35:41.320Z,96739.91
2023-01-12T03:38:19.726Z,96745.25
2023-01-12T03:40:54.153Z,96742.75
2023-01-12T03:43:29.969Z,96745.63
2023-01-12T03:46:03.796Z,96737.03
2023-01-12T03:48:39.520Z,96732.66
2023-01-12T03:51:12.840Z,96739.66
2023-01-12T03:53:44.047Z,96738.22
2023-01-12T03:56:15.122Z,96746.94
2023-01-12T03:58:44.250Z,96748.47
2023-01-12T04:01:13.053Z,96751.91
2023-01-12T04:03:42.768Z,96750.25
2023-01-12T04:06:11.201Z,96755.50
2023-01-12T04:08:39.546Z,96752.16
2023-01-12T04:11:22.570Z,96745.25
2023-01-12T04:13:51.210Z,96751.44
2023-01-12T04:16:19.660Z,96757.72
2023-01-12T04:18:49.388Z,96750.97
2023-01-12T04:21:35.320Z,96748.34
2023-01-12T04:24:03.716Z,96749.63
2023-01-12T04:26:32.024Z,96746.41
2023-01-12T04:29:00.356Z,96745.69
2023-01-12T04:31:28.822Z,96745.09
2023-01-12T04:33:58.508Z,96745.34
2023-01-12T04:36:26.831Z,96742.03
2023-01-12T04:38:55.289Z,96756.75
2023-01-12T04:41:23.638Z,96752.47
2023-01-12T04:43:51.957Z,96762.94
2023-01-12T04:46:20.322Z,96760.34
2023-01-12T04:48:48.688Z,96758.88
2023-01-12T04:51:18.689Z,96758.03
2023-01-12T04:53:48.215Z,96762.47
2023-01-12T04:56:16.515Z,96755.69
2023-01-12T04:58:45.026Z,96749.72
2023-01-12T05:01:15.339Z,96744.59
2023-01-12T05:03:44.734Z,96747.44
2023-01-12T05:06:13.399Z,96739.84
2023-01-12T05:09:00.983Z,96738.97
2023-01-12T05:11:30.126Z,96731.28
2023-01-12T05:13:58.516Z,96733.03
2023-01-12T05:16:27.390Z,96733.88
2023-01-12T05:18:55.914Z,96728.75
2023-01-12T05:21:25.520Z,96733.13
2023-01-12T05:23:55.508Z,96723.66
2023-01-12T05:26:23.756Z,96718.53
2023-01-12T05:28:52.684Z,96708.06
2023-01-12T05:31:21.061Z,96719.50
2023-01-12T05:33:49.676Z,96723.84
2023-01-12T05:36:18.615Z,96726.63
2023-01-12T05:38:47.159Z,96745.75
2023-01-12T05:41:16.870Z,96733.59
2023-01-12T05:43:50.441Z,96727.56
2023-01-12T05:46:20.831Z,96729.34
2023-01-12T05:48:50.148Z,96733.59
2023-01-12T05:51:19.413Z,96738.00
2023-01-12T05:53:47.924Z,96727.56
2023-01-12T05:56:20.949Z,96738.13
2023-01-12T05:58:52.965Z,96743.34
2023-01-12T06:01:22.364Z,96738.84
2023-01-12T06:03:51.663Z,96730.06
2023-01-12T06:06:20.809Z,96730.06
2023-01-12T06:08:52.137Z,96736.94
2023-01-12T06:11:39.620Z,96730.78
2023-01-12T06:14:08.648Z,96736.84
2023-01-12T06:16:39.164Z,96732.56
2023-01-12T06:19:07.912Z,96727.19
2023-01-12T06:21:36.336Z,96714.13
2023-01-12T06:24:05.247Z,96727.91
2023-01-12T06:26:34.954Z,96731.50
2023-01-12T06:29:05.335Z,96731.50
2023-01-12T06:31:34.515Z,96721.84
2023-01-12T06:34:02.904Z,96727.09
2023-01-12T06:36:31.175Z,96717.44
2023-01-12T06:38:59.463Z,96712.22
2023-01-12T06:41:45.588Z,96700.81
2023-01-12T06:44:15.302Z,96699.13
2023-01-12T06:46:43.600Z,96698.19
2023-01-12T06:49:12.205Z,96713.06
2023-01-12T06:51:40.680Z,96715.56
2023-01-12T06:54:09.032Z,96705.94
2023-01-12T06:56:37.366Z,96709.38
2023-01-12T06:59:05.780Z,96703.22
2023-01-12T07:01:35.473Z,96706.53
2023-01-12T07:04:03.861Z,96712.59
2023-01-12T07:06:32.195Z,96708.19
2023-01-12T07:09:00.439Z,96699.53
2023-01-12T07:11:28.746Z,96705.56
2023-01-12T07:13:57.264Z,96710.69
2023-01-12T07:16:25.604Z,96707.97
2023-01-12T07:18:55.415Z,96718.31
2023-01-12T07:21:23.823Z,96723.41
2023-01-12T07:23:52.131Z,96715.56
2023-01-12T07:26:20.532Z,96715.34
2023-01-12T07:28:49.082Z,96729.38
2023-01-12T07:31:19.582Z,96712.75
2023-01-12T07:33:47.999Z,96725.59
2023-01-12T07:36:18.065Z,96724.53
2023-01-12T07:38:46.532Z,96733.09
2023-01-12T07:41:29.260Z,96734.75
2023-01-12T07:43:57.673Z,96735.59
2023-01-12T07:46:26.340Z,96749.28
2023-01-12T07:48:54.908Z,96748.22
2023-01-12T07:51:24.633Z,96753.44
2023-01-12T07:53:53.047Z,96761.03
2023-01-12T07:56:21.432Z,96762.63
2023-01-12T07:58:50.781Z,96759.63
2023-01-12T08:01:19.456Z,96761.06
2023-01-12T08:03:47.869Z,96772.25
2023-01-12T08:06:16.257Z,96759.88
2023-01-12T08:08:46.369Z,96769.41
2023-01-12T08:11:14.688Z,96779.66
2023-01-12T08:13:43.005Z,96781.22
2023-01-12T08:16:17.176Z,96775.00
2023-01-12T08:18:49.114Z,96772.38
2023-01-12T08:21:23.165Z,96775.59
2023-01-12T08:23:57.340Z,96764.31
2023-01-12T08:26:28.275Z,96765.94
2023-01-12T08:29:00.817Z,96771.09
2023-01-12T08:31:29.521Z,96762.41
2023-01-12T08:33:57.975Z,96762.41
2023-01-12T08:36:28.840Z,96758.00
2023-01-12T08:38:58.941Z,96753.59
2023-01-12T08:41:33.372Z,96749.19
2023-01-12T08:44:06.552Z,96754.31
2023-01-12T08:46:36.915Z,96756.94
2023-01-12T08:49:09.873Z,96748.22
2023-01-12T08:51:39.554Z,96748.81
2023-01-12T08:54:11.493Z,96751.94
2023-01-12T08:56:39.851Z,96747.91
2023-01-12T08:59:08.472Z,96742.06
2023-01-12T09:01:37.352Z,96743.22
2023-01-12T09:04:06.997Z,96740.25
2023-01-12T09:06:37.777Z,96725.84
2023-01-12T09:09:08.598Z,96722.72
2023-01-12T09:11:39.608Z,96744.72
2023-01-12T09:14:08.119Z,96730.88
2023-01-12T09:16:37.002Z,96725.03
2023-01-12T09:19:05.607Z,96727.97
2023-01-12T09:21:37.775Z,96719.75
2023-01-12T09:24:07.170Z,96721.41
2023-01-12T09:26:40.126Z,96724.03
2023-01-12T09:29:08.518Z,96722.97
2023-01-12T09:31:38.688Z,96736.91
2023-01-12T09:34:07.697Z,96730.44
2023-01-12T09:36:39.609Z,96728.66
2023-01-12T09:39:12.770Z,96738.09
2023-01-12T09:42:06.804Z,96711.84
2023-01-12T09:44:55.247Z,96697.06
2023-01-12T09:47:29.807Z,96706.72
2023-01-12T09:50:09.176Z,96683.13
2023-01-12T09:52:42.806Z,96684.91
2023-01-12T09:55:17.474Z,96694.31
2023-01-12T09:58:02.695Z,96687.03
2023-01-12T10:00:32.480Z,96684.00
2023-01-12T10:03:12.805Z,96673.13
2023-01-12T10:05:46.034Z,96679.09
2023-01-12T10:08:19.114Z,96661.19
2023-01-12T10:11:03.123Z,96660.94
2023-01-12T10:13:49.109Z,96663.44
2023-01-12T10:16:22.364Z,96656.09
2023-01-12T10:18:57.601Z,96654.34
2023-01-12T10:21:27.529Z,96663.03
2023-01-12T10:23:56.156Z,96642.03
2023-01-12T10:26:26.588Z,96645.50
2023-01-12T10:28:58.277Z,96632.13
2023-01-12T10:31:27.406Z,96619.59
2023-01-12T10:34:07.750Z,96624.56
2023-01-12T10:36:38.116Z,96622.63
2023-01-12T10:39:29.474Z,96627.63
2023-01-12T10:42:31.870Z,96622.09
2023-01-12T10:45:20.702Z,96618.97
2023-01-12T10:47:50.920Z,96614.16
2023-01-12T10:50:25.018Z,96617.34
2023-01-12T10:52:57.322Z,96606.59
2023-01-12T10:55:31.241Z,96590.44
2023-01-12T10:58:00.328Z,96584.75
2023-01-12T11:00:31.112Z,96573.88
2023-01-12T11:02:59.602Z,96577.91
2023-01-12T11:05:31.262Z,96566.31
2023-01-12T11:08:00.038Z,96568.56
2023-01-12T11:10:31.776Z,96573.53
2023-01-12T11:13:03.506Z,96580.16
2023-01-12T11:15:39.061Z,96580.59
2023-01-12T11:18:28.341Z,96564.28
2023-01-12T11:21:02.443Z,96555.84
2023-01-12T11:23:38.332Z,96544.94
2023-01-12T11:26:17.318Z,96545.50
2023-01-12T11:28:48.948Z,96540.66
2023-01-12T11:31:23.682Z,96535.13
2023-01-12T11:33:56.333Z,96533.19
2023-01-12T11:36:28.544Z,96527.81
2023-01-12T11:39:03.208Z,96525.03
2023-01-12T11:41:38.953Z,96521.31
2023-01-12T11:44:16.511Z,96512.16
2023-01-12T11:46:49.745Z,96513.53
2023-01-12T11:49:24.054Z,96505.78
2023-01-12T11:51:56.776Z,96506.63
2023-01-12T11:54:26.929Z,96512.13
2023-01-12T11:57:42.598Z,96517.13
2023-01-12T12:00:25.876Z,96520.28
2023-01-12T12:03:02.966Z,96520.00
2023-01-12T12:05:43.865Z,96515.28
2023-01-12T12:08:27.156Z,96512.22
2023-01-12T12:11:00.764Z,96517.91
2023-01-12T12:13:36.879Z,96524.53
2023-01-12T12:16:17.651Z,96518.00
2023-01-12T12:18:57.970Z,96518.41
2023-01-12T12:21:47.734Z,96506.50
2023-01-12T12:24:41.511Z,96510.19
2023-01-12T12:27:17.964Z,96517.81
2023-01-12T12:30:12.952Z,96519.31
2023-01-12T12:32:50.352Z,96516.53
2023-01-12T12:35:34.925Z,96529.56
2023-01-12T12:38:15.799Z,96526.78
2023-01-12T12:41:13.810Z,96526.66
2023-01-12T12:43:59.704Z,96527.16
2023-01-12T12:46:37.706Z,96525.06
2023-01-12T12:49:09.643Z,96518.72
2023-01-12T12:51:41.817Z,96508.69
2023-01-12T12:54:17.061Z,96505.63
2023-01-12T12:56:47.643Z,96499.91
2023-01-12T12:59:51.244Z,96497.84
2023-01-12T13:02:35.486Z,96497.53
2023-01-12T13:05:09.002Z,96499.19
2023-01-12T13:07:51.506Z,96505.28
2023-01-12T13:10:30.560Z,96508.59
2023-01-12T13:13:30.873Z,96493.63
2023-01-12T13:16:42.260Z,96492.28
2023-01-12T13:19:32.652Z,96484.66
2023-01-12T13:22:26.546Z,96491.59
2023-01-12T13:24:57.497Z,96493.91
2023-01-12T13:27:48.652Z,96494.75
2023-01-12T13:30:25.274Z,96498.22
2023-01-12T13:33:17.798Z,96493.50
2023-01-12T13:36:06.790Z,96492.38
2023-01-12T13:38:48.846Z,96488.44
2023-01-12T13:41:46.595Z,96494.41
2023-01-12T13:44:22.024Z,96480.28
2023-01-12T13:46:52.506Z,96485.06
2023-01-12T13:49:27.949Z,96497.59
2023-01-12T13:52:01.810Z,96495.19
2023-01-12T13:54:30.576Z,96490.66
2023-01-12T13:57:02.524Z,96482.78
2023-01-12T13:59:31.031Z,96479.91
2023-01-12T14:01:59.843Z,96485.72
2023-01-12T14:04:51.630Z,96483.63
2023-01-12T14:07:37.643Z,96487.44
2023-01-12T14:10:21.789Z,96477.41
2023-01-12T14:13:11.351Z,96479.28
2023-01-12T14:15:58.826Z,96478.06
2023-01-12T14:18:28.871Z,96471.31
2023-01-12T14:20:59.191Z,96470.47
2023-01-12T14:23:33.786Z,96470.06
2023-01-12T14:26:07.255Z,96477.00
2023-01-12T14:28:38.247Z,96476.25
2023-01-12T14:31:09.260Z,96472.03
2023-01-12T14:33:41.013Z,96481.03
2023-01-12T14:36:17.476Z,96482.66
2023-01-12T14:38:46.519Z,96481.44
2023-01-12T14:41:37.127Z,96478.28
2023-01-12T14:44:25.500Z,96477.91
2023-01-12T14:46:55.118Z,96484.09
2023-01-12T14:49:28.767Z,96479.81
2023-01-12T14:51:58.577Z,96479.09
2023-01-12T14:54:29.175Z,96483.22
2023-01-12T14:57:00.729Z,96487.03
2023-01-12T14:59:33.063Z,96488.41
2023-01-12T15:02:37.769Z,96490.03
2023-01-12T15:05:19.660Z,96481.16
2023-01-12T15:07:56.753Z,96468.47
2023-01-12T15:10:33.997Z,96478.69
2023-01-12T15:13:22.955Z,96473.47
2023-01-12T15:16:12.012Z,96474.47
2023-01-12T15:19:12.997Z,96469.25
2023-01-12T15:22:05.424Z,96482.69
2023-01-12T15:24:54.495Z,96483.41
2023-01-12T15:27:24.494Z,96488.72
2023-01-12T15:29:53.031Z,96491.34
2023-01-12T15:32:41.382Z,96485.97
2023-01-12T15:35:21.176Z,96476.31
2023-01-12T15:37:49.617Z,96492.66
2023-01-12T15:40:19.226Z,96495.00
2023-01-12T15:42:47.991Z,96486.72
2023-01-12T15:45:23.783Z,96472.31
2023-01-12T15:47:53.479Z,96473.88
2023-01-12T15:50:21.879Z,96476.06
2023-01-12T15:52:51.218Z,96484.38
2023-01-12T15:55:21.990Z,96474.41
2023-01-12T15:57:52.267Z,96479.25
2023-01-12T16:00:22.916Z,96477.03
2023-01-12T16:02:53.994Z,96479.25
2023-01-12T16:05:26.189Z,96471.75
2023-01-12T16:07:55.056Z,96468.72
2023-01-12T16:10:23.478Z,96463.59
2023-01-12T16:12:51.819Z,96479.59
2023-01-12T16:15:22.464Z,96472.97
2023-01-12T16:17:51.368Z,96479.31
2023-01-12T16:20:21.589Z,96479.72
2023-01-12T16:22:50.381Z,96478.19
2023-01-12T16:25:18.988Z,96484.56
2023-01-12T16:27:47.569Z,96488.13
2023-01-12T16:30:16.863Z,96480.38
2023-01-12T16:32:47.240Z,96483.16
2023-01-12T16:35:16.352Z,96482.59
2023-01-12T16:37:46.072Z,96486.31
2023-01-12T16:40:14.668Z,96471.53
2023-01-12T16:42:43.039Z,96472.66
2023-01-12T16:45:11.675Z,96471.78
2023-01-12T16:47:39.994Z,96472.09
2023-01-12T16:50:09.082Z,96481.88
2023-01-12T16:52:37.482Z,96484.50
2023-01-12T16:55:07.816Z,96480.34
2023-01-12T16:57:37.289Z,96479.66
2023-01-12T17:00:06.489Z,96478.94
2023-01-12T17:02:35.091Z,96475.63
2023-01-12T17:05:03.650Z,96482.00
2023-01-12T17:07:32.098Z,96475.06
2023-01-12T17:10:00.607Z,96475.34
2023-01-12T17:12:30.576Z,96478.22
2023-01-12T17:15:00.064Z,96477.53
2023-01-12T17:17:29.167Z,96469.94
2023-01-12T17:19:57.860Z,96472.69
2023-01-12T17:22:27.038Z,96482.38
2023-01-12T17:24:55.648Z,96478.75
2023-01-12T17:27:25.929Z,96479.00
2023-01-12T17:29:55.687Z,96487.97
2023-01-12T17:32:24.147Z,96483.72
2023-01-12T17:34:52.587Z,96472.25
2023-01-12T17:37:20.951Z,96475.00
2023-01-12T17:39:49.371Z,96479.41
2023-01-12T17:42:36.596Z,96469.91
2023-01-12T17:45:07.624Z,96469.19
2023-01-12T17:47:36.517Z,96468.34
2023-01-12T17:50:05.243Z,96461.31
2023-01-12T17:52:33.815Z,96468.34
2023-01-12T17:55:02.375Z,96467.66
2023-01-12T17:57:32.015Z,96460.78
2023-01-12T18:00:00.495Z,96455.78
2023-01-12T18:02:30.298Z,96455.06
2023-01-12T18:04:58.681Z,96456.03
2023-01-12T18:07:27.061Z,96458.66
2023-01-12T18:09:55.487Z,96451.06
2023-01-12T18:12:26.055Z,96446.75
2023-01-12T18:14:55.573Z,96458.22
2023-01-12T18:17:24.581Z,96453.00
2023-01-12T18:19:54.540Z,96452.28
2023-01-12T18:22:22.946Z,96463.72
2023-01-12T18:24:51.553Z,96454.22
2023-01-12T18:27:19.967Z,96459.47
2023-01-12T18:29:48.448Z,96453.34
2023-01-12T18:32:16.816Z,96442.06
2023-01-12T18:34:45.470Z,96435.16
2023-01-12T18:37:15.202Z,96441.34
2023-01-12T18:39:44.210Z,96437.22
2023-01-12T18:42:30.128Z,96430.41
2023-01-12T18:44:59.524Z,96425.47
2023-01-12T18:47:45.530Z,96422.13
2023-01-12T18:50:31.652Z,96420.47
2023-01-12T18:53:18.910Z,96422.50
2023-01-12T18:55:47.835Z,96419.88
2023-01-12T18:58:16.214Z,96419.06
2023-01-12T19:00:44.573Z,96416.56
2023-01-12T19:03:13.263Z,96416.56
2023-01-12T19:05:53.357Z,96407.75
2023-01-12T19:08:40.525Z,96401.69
2023-01-12T19:11:10.617Z,96401.13
2023-01-12T19:13:57.069Z,96382.19
2023-01-12T19:16:42.986Z,96392.69
2023-01-12T19:19:12.099Z,96397.94
2023-01-12T19:22:06.888Z,96383.16
2023-01-12T19:24:54.192Z,96386.63
2023-01-12T19:27:40.550Z,96386.75
2023-01-12T19:30:10.603Z,96378.06
2023-01-12T19:32:38.941Z,96378.19
2023-01-12T19:35:11.320Z,96375.56
2023-01-12T19:37:42.500Z,96376.50
2023-01-12T19:40:19.461Z,96373.47
2023-01-12T19:43:05.402Z,96378.03
2023-01-12T19:45:37.358Z,96369.31
2023-01-12T19:48:07.363Z,96366.84
2023-01-12T19:50:36.645Z,96372.09
2023-01-12T19:53:05.779Z,96366.13
2023-01-12T19:55:35.672Z,96364.34
2023-01-12T19:58:08.698Z,96366.13
2023-01-12T20:00:39.098Z,96371.34
2023-01-12T20:03:07.422Z,96354.69
2023-01-12T20:05:38.295Z,96351.81
2023-01-12T20:08:07.420Z,96346.56
2023-01-12T20:10:38.180Z,96354.56
2023-01-12T20:13:09.118Z,96350.97
2023-01-12T20:15:39.494Z,96338.97
2023-01-12T20:18:08.902Z,96349.44
2023-01-12T20:20:37.256Z,96341.84
2023-01-12T20:23:05.613Z,96351.63
2023-01-12T20:25:34.098Z,96341.41
2023-01-12T20:28:03.862Z,96349.53
2023-01-12T20:30:37.965Z,96339.31
2023-01-12T20:33:06.855Z,96354.19
2023-01-12T20:35:38.328Z,96337.06
2023-01-12T20:38:13.146Z,96333.88
2023-01-12T20:40:41.533Z,96334.16
2023-01-12T20:43:11.421Z,96324.63
2023-01-12T20:45:41.470Z,96330.00
2023-01-12T20:48:13.241Z,96328.22
2023-01-12T20:50:46.420Z,96336.66
2023-01-12T20:53:16.275Z,96344.38
2023-01-12T20:55:46.059Z,96324.25
2023-01-12T20:58:16.271Z,96336.66
2023-01-12T21:00:45.144Z,96307.13
2023-01-12T21:03:13.693Z,96322.13
2023-01-12T21:05:42.902Z,96320.63
2023-01-12T21:08:11.894Z,96329.44
2023-01-12T21:10:42.086Z,96324.47
2023-01-12T21:13:10.463Z,96328.19
2023-01-12T21:15:40.249Z,96325.94
2023-01-12T21:18:08.904Z,96331.44
2023-01-12T21:20:37.257Z,96330.88
2023-01-12T21:23:05.706Z,96328.50
2023-01-12T21:25:34.085Z,96333.16
2023-01-12T21:28:02.444Z,96317.00
2023-01-12T21:30:30.859Z,96314.63
2023-01-12T21:33:00.588Z,96323.47
2023-01-12T21:35:28.954Z,96316.69
2023-01-12T21:37:57.957Z,96315.16
2023-01-12T21:40:26.858Z,96308.25
2023-01-12T21:43:11.888Z,96316.09
2023-01-12T21:45:42.504Z,96323.00
2023-01-12T21:48:13.671Z,96304.69
2023-01-12T21:50:42.040Z,96313.75
2023-01-12T21:53:14.791Z,96319.00
2023-01-12T21:55:43.603Z,96323.53
2023-01-12T21:58:12.020Z,96325.44
2023-01-12T22:00:40.370Z,96333.41
2023-01-12T22:03:08.688Z,96336.03
2023-01-12T22:05:38.956Z,96344.81
2023-01-12T22:08:07.299Z,96328.28
2023-01-12T22:10:35.576Z,96339.72
2023-01-12T22:13:06.619Z,96342.34
2023-01-12T22:15:35.928Z,96337.13
2023-01-12T22:18:04.535Z,96346.72
2023-01-12T22:20:32.898Z,96339.03
2023-01-12T22:23:03.019Z,96346.88
2023-01-12T22:25:31.325Z,96348.66
2023-01-12T22:27:59.678Z,96342.34
2023-01-12T22:30:28.081Z,96347.19
2023-01-12T22:32:56.894Z,96343.47
2023-01-12T22:35:26.063Z,96341.03
2023-01-12T22:37:55.760Z,96330.66
2023-01-12T22:40:25.517Z,96374.31
2023-01-12T22:43:11.888Z,96356.25
2023-01-12T22:45:40.523Z,96360.53
2023-01-12T22:48:08.956Z,96339.47
2023-01-12T22:50:37.821Z,96349.94
2023-01-12T22:53:06.146Z,96356.97
2023-01-12T22:55:40.211Z,96332.69
2023-01-12T22:58:08.768Z,96339.72
2023-01-12T23:00:39.760Z,96325.94
2023-01-12T23:03:09.558Z,96319.88
2023-01-12T23:05:45.823Z,96319.88
2023-01-12T23:08:15.835Z,96317.25
2023-01-12T23:10:46.550Z,96320.00
2023-01-12T23:13:19.555Z,96316.44
2023-01-12T23:15:51.097Z,96308.56
2023-01-12T23:18:22.076Z,96299.78
2023-01-12T23:20:51.163Z,96297.88
2023-01-12T23:23:19.639Z,96300.47
2023-01-12T23:25:49.897Z,96294.28
2023-01-12T23:28:23.659Z,96298.69
2023-01-12T23:30:52.311Z,96295.25
2023-01-12T23:33:21.395Z,96297.72
2023-01-12T23:35:52.037Z,96291.41
2023-01-12T23:38:21.283Z,96286.19
2023-01-12T23:40:51.436Z,96291.28
2023-01-12T23:43:20.877Z,96284.28
2023-01-12T23:45:50.374Z,96280.69
2023-01-12T23:48:19.751Z,96281.53
2023-01-12T23:50:48.830Z,96282.34
2023-01-12T23:53:19.692Z,96289.09
2023-01-12T23:55:50.162Z,96295.16
2023-01-12T23:58:21.819Z,96287.19
